Time;durP1;ratioP1;P1;durP2;ratioP2;P2;SDS_P1;SDS_P2;PMS_P1;PMS_P2;Temp;Humidity;BMP_temperature;BMP_pressure;BME280_temperature;BME280_humidity;BME280_pressure;Samples;Min_cycle;Max_cycle;Signal;HPM_P1;HPM_P2
2023/04/05 00:06:51;;;;;;;16.42;7.15;;;;;;;-1.15;56.39;100831.78;30744921;28;96814;-65
2023/04/05 00:21:53;;;;;;;20.30;8.15;;;;;;;-1.31;56.31;100823.91;30742409;28;97481;-66
2023/04/05 00:36:53;;;;;;;15.77;6.90;;;;;;;-1.63;56.93;100828.13;30741250;28;96656;-66
2023/04/05 00:51:54;;;;;;;19.33;7.30;;;;;;;-1.75;57.09;100826.97;30737876;28;113066;-65
2023/04/05 01:07:08;;;;;;;17.17;8.10;;;;;;;-1.83;57.15;100816.03;30738897;28;96677;-65
2023/04/05 01:22:47;;;;;;;20.13;6.97;;;;;;;-1.97;58.52;100808.88;30737605;28;96757;-66
2023/04/05 01:37:52;;;;;;;15.00;7.68;;;;;;;-2.19;58.64;100804.69;30736432;28;97360;-66
2023/04/05 01:52:53;;;;;;;13.63;6.82;;;;;;;-2.32;58.95;100793.13;30734540;28;96683;-66
2023/04/05 02:07:53;;;;;;;10.88;5.75;;;;;;;-2.42;60.05;100792.72;30732398;28;114211;-65
2023/04/05 02:22:54;;;;;;;23.38;7.32;;;;;;;-2.51;60.46;100774.91;30732295;28;97359;-66
2023/04/05 02:37:55;;;;;;;18.75;7.80;;;;;;;-2.51;60.93;100765.31;30731334;28;96861;-66
2023/04/05 02:52:55;;;;;;;10.68;5.75;;;;;;;-2.39;60.83;100753.47;30729725;28;97714;-66
2023/04/05 03:07:58;;;;;;;19.77;7.90;;;;;;;-2.62;61.20;100755.38;30731352;28;114676;-65
2023/04/05 03:22:58;;;;;;;14.65;7.75;;;;;;;-2.63;61.13;100748.47;30747906;28;97046;-66
2023/04/05 03:37:59;;;;;;;19.98;8.18;;;;;;;-2.37;61.78;100735.94;30746659;28;100441;-66
2023/04/05 03:53:00;;;;;;;13.70;6.32;;;;;;;-1.95;62.53;100733.94;30742679;28;96782;-66
2023/04/05 04:08:00;;;;;;;12.00;6.95;;;;;;;-2.20;61.15;100745.59;30740564;28;98068;-66
2023/04/05 04:23:00;;;;;;;16.05;7.82;;;;;;;-2.36;62.54;100755.06;30737018;28;114746;-65
2023/04/05 04:38:03;;;;;;;13.88;6.15;;;;;;;-2.40;62.65;100768.25;30679231;28;112389;-66
2023/04/05 04:53:04;;;;;;;18.13;7.70;;;;;;;-2.36;62.87;100771.56;30614957;28;97388;-65
2023/04/05 05:08:04;;;;;;;14.05;7.13;;;;;;;-1.81;63.81;100761.97;30620628;28;97666;-68
2023/04/05 05:23:05;;;;;;;12.38;7.40;;;;;;;-1.08;63.12;100780.03;30613958;28;97004;-71
2023/04/05 05:38:05;;;;;;;14.18;7.70;;;;;;;-0.88;62.93;100781.59;30653616;28;98214;-64
2023/04/05 05:53:05;;;;;;;17.05;8.65;;;;;;;-0.20;63.13;100780.50;30677701;28;97530;-67
2023/04/05 06:08:07;;;;;;;18.58;8.43;;;;;;;1.19;61.63;100780.22;30614480;28;96843;-68
2023/04/05 06:23:07;;;;;;;20.52;10.15;;;;;;;2.07;60.30;100771.16;30617085;28;108946;-65
2023/04/05 06:38:08;;;;;;;18.58;9.57;;;;;;;2.93;59.05;100775.88;30678860;28;98378;-72
2023/04/05 06:53:08;;;;;;;19.80;9.35;;;;;;;4.23;57.07;100764.78;30676635;28;96870;-68
2023/04/05 07:08:09;;;;;;;18.42;8.50;;;;;;;5.16;54.76;100760.34;30690490;28;97204;-66
2023/04/05 07:23:10;;;;;;;18.77;8.50;;;;;;;6.02;53.07;100771.09;30713760;28;96908;-66
2023/04/05 07:38:10;;;;;;;17.67;7.78;;;;;;;6.26;51.16;100765.59;30704903;28;97039;-65
2023/04/05 07:53:10;;;;;;;20.50;8.25;;;;;;;6.54;49.92;100773.03;30698787;28;97785;-69
2023/04/05 08:08:11;;;;;;;17.77;6.78;;;;;;;6.47;48.64;100787.75;30711717;28;97357;-68
2023/04/05 08:23:11;;;;;;;12.43;5.55;;;;;;;5.98;50.01;100793.50;30663854;28;97221;-64
2023/04/05 08:38:11;;;;;;;11.90;5.35;;;;;;;7.25;49.14;100765.13;30661365;28;105103;-66
2023/04/05 08:53:12;;;;;;;14.85;5.65;;;;;;;10.55;45.29;100761.72;30733502;28;99021;-66
2023/04/05 09:08:13;;;;;;;8.80;4.00;;;;;;;12.56;40.28;100753.06;30704632;28;97770;-66
2023/04/05 09:23:13;;;;;;;11.80;4.47;;;;;;;16.65;35.78;100746.75;30715057;28;96999;-68
2023/04/05 09:38:13;;;;;;;6.38;3.45;;;;;;;13.97;33.03;100748.78;30711325;28;97193;-68
2023/04/05 09:53:18;;;;;;;6.32;3.72;;;;;;;11.80;34.14;100746.03;30705323;28;102638;-69
2023/04/05 10:08:18;;;;;;;9.27;3.43;;;;;;;11.01;34.94;100732.13;30726150;28;96766;-68
2023/04/05 10:23:23;;;;;;;7.68;3.35;;;;;;;9.53;36.67;100728.31;30729117;28;96809;-64
2023/04/05 10:38:28;;;;;;;7.47;3.87;;;;;;;8.56;39.09;100723.31;30730984;28;97630;-71
2023/04/05 10:53:32;;;;;;;6.40;4.10;;;;;;;15.60;31.53;100692.72;30745548;28;97721;-66
2023/04/05 11:08:34;;;;;;;15.73;4.57;;;;;;;13.52;30.93;100687.88;30733665;28;97130;-75
2023/04/05 11:24:05;;;;;;;14.03;4.80;;;;;;;9.37;36.90;100681.97;30714287;28;97002;-65
2023/04/05 11:39:32;;;;;;;6.60;4.30;;;;;;;8.38;38.88;100670.09;30739397;28;97101;-67
2023/04/05 11:54:33;;;;;;;7.27;4.17;;;;;;;6.94;41.68;100676.91;30666236;28;97622;-68
2023/04/05 12:09:33;;;;;;;10.93;3.17;;;;;;;6.66;43.72;100684.63;30613297;28;97228;-68
2023/04/05 12:24:34;;;;;;;5.10;3.15;;;;;;;10.09;38.31;100654.50;30626007;28;97014;-69
2023/04/05 12:39:37;;;;;;;4.97;2.97;;;;;;;8.32;40.83;100654.75;30664882;28;97355;-67
2023/04/05 12:54:37;;;;;;;5.27;2.40;;;;;;;8.70;42.90;100652.13;30664354;28;99036;-67
2023/04/05 13:09:38;;;;;;;6.10;3.03;;;;;;;11.84;38.49;100640.59;30658905;28;97243;-68
2023/04/05 13:24:38;;;;;;;8.30;3.40;;;;;;;10.96;37.98;100642.00;30668268;28;101831;-68
2023/04/05 13:39:38;;;;;;;5.50;3.00;;;;;;;8.92;42.62;100665.00;30611750;28;105369;-68
2023/04/05 13:54:39;;;;;;;4.90;2.88;;;;;;;7.66;45.79;100659.03;30606913;28;110246;-66
2023/04/05 14:09:39;;;;;;;8.70;3.45;;;;;;;7.62;47.55;100647.03;30652329;28;97847;-68
2023/04/05 14:24:39;;;;;;;5.60;3.08;;;;;;;7.78;47.81;100647.31;30655636;28;97560;-68
2023/04/05 14:39:40;;;;;;;7.97;3.92;;;;;;;8.07;47.19;100645.59;30676402;28;97458;-71
2023/04/05 14:54:41;;;;;;;4.55;3.08;;;;;;;9.45;46.23;100646.66;30674907;28;97930;-68
2023/04/05 15:09:41;;;;;;;5.22;3.38;;;;;;;8.92;44.92;100645.59;30628393;28;97234;-68
2023/04/05 15:24:42;;;;;;;5.82;3.75;;;;;;;7.20;46.98;100618.13;30613000;28;97046;-68
2023/04/05 15:39:42;;;;;;;12.60;3.85;;;;;;;6.77;47.56;100630.72;30659626;28;97530;-67
2023/04/05 15:54:43;;;;;;;7.93;3.75;;;;;;;5.96;49.16;100631.44;30684580;28;96746;-67
2023/04/05 16:09:43;;;;;;;6.65;3.28;;;;;;;4.94;51.35;100641.53;30677742;28;98591;-67
2023/04/05 16:24:44;;;;;;;9.98;3.13;;;;;;;4.44;52.63;100636.66;30673639;28;96865;-67
2023/04/05 16:39:44;;;;;;;8.02;3.88;;;;;;;4.45;53.98;100643.59;30677915;28;98124;-68
2023/04/05 16:54:44;;;;;;;7.60;4.45;;;;;;;4.07;54.19;100643.81;30679656;28;97670;-71
2023/04/05 17:09:45;;;;;;;7.97;3.83;;;;;;;3.54;55.49;100630.22;30652160;28;96652;-67
2023/04/05 17:24:45;;;;;;;7.78;3.90;;;;;;;3.26;56.37;100637.53;30663118;28;96853;-66
2023/04/05 17:39:46;;;;;;;14.23;7.32;;;;;;;3.27;57.35;100655.00;30718737;28;96867;-67
2023/04/05 17:54:46;;;;;;;14.70;9.00;;;;;;;3.21;57.56;100658.94;30610868;28;96998;-68
2023/04/05 18:09:46;;;;;;;19.98;11.50;;;;;;;2.68;58.33;100682.84;30699901;28;96735;-67
2023/04/05 18:24:47;;;;;;;27.42;14.50;;;;;;;2.22;59.95;100699.16;30703511;28;97039;-68
2023/04/05 18:39:47;;;;;;;27.75;14.68;;;;;;;1.83;61.19;100716.63;30714729;28;96933;-65
2023/04/05 18:54:48;;;;;;;29.85;14.05;;;;;;;1.47;62.37;100729.41;30731731;28;97008;-64
2023/04/05 19:09:48;;;;;;;22.27;14.10;;;;;;;1.16;63.67;100731.38;30747836;28;97425;-63
2023/04/05 19:24:48;;;;;;;49.00;24.73;;;;;;;0.85;64.46;100729.81;30745333;28;97236;-64
2023/04/05 19:39:49;;;;;;;40.38;19.70;;;;;;;0.56;65.45;100727.19;30745719;28;96648;-64
2023/04/05 19:54:49;;;;;;;33.50;19.20;;;;;;;0.35;66.62;100725.84;30741521;28;98429;-64
2023/04/05 20:09:51;;;;;;;46.90;24.55;;;;;;;-0.03;67.14;100720.16;30743165;28;96935;-64
2023/04/05 20:24:51;;;;;;;36.92;18.73;;;;;;;-0.14;68.33;100703.38;30740566;28;96731;-64
2023/04/05 20:39:53;;;;;;;37.65;20.02;;;;;;;-0.42;68.96;100689.25;30636678;28;98050;-64
2023/04/05 20:54:53;;;;;;;30.05;17.17;;;;;;;-0.54;69.58;100691.59;30617271;28;96722;-64
2023/04/05 21:09:54;;;;;;;35.97;20.58;;;;;;;-0.62;70.57;100685.13;30616476;28;96698;-64
2023/04/05 21:24:54;;;;;;;53.78;27.95;;;;;;;-0.79;71.06;100691.28;30613629;28;96657;-63
2023/04/05 21:39:54;;;;;;;44.78;23.35;;;;;;;-1.00;71.46;100688.91;30607989;28;97032;-64
2023/04/05 21:54:55;;;;;;;40.72;24.48;;;;;;;-1.18;72.12;100679.47;30705604;28;97389;-64
2023/04/05 22:09:55;;;;;;;49.22;27.02;;;;;;;-1.32;72.42;100675.81;30633187;28;97614;-65
2023/04/05 22:24:56;;;;;;;48.28;28.00;;;;;;;-1.51;73.02;100685.56;30647829;28;97087;-64
2023/04/05 22:39:56;;;;;;;58.25;31.80;;;;;;;-1.69;73.07;100685.59;30670885;28;97049;-63
2023/04/05 22:54:56;;;;;;;42.45;25.08;;;;;;;-1.75;73.68;100685.91;30608859;28;96753;-64
2023/04/05 23:09:57;;;;;;;43.47;25.85;;;;;;;-1.89;73.67;100697.94;30608838;28;97296;-66
2023/04/05 23:25:01;;;;;;;57.80;30.50;;;;;;;-2.02;73.83;100683.78;30691348;28;96561;-63
2023/04/05 23:40:03;;;;;;;72.23;41.87;;;;;;;-2.20;73.90;100682.94;30747329;28;96722;-63
2023/04/05 23:55:03;;;;;;;77.80;42.28;;;;;;;-2.39;74.82;100675.19;30719745;28;96809;-64
